Time;durP1;ratioP1;P1;durP2;ratioP2;P2;SDS_P1;SDS_P2;PMS_P1;PMS_P2;Temp;Humidity;BMP_temperature;BMP_pressure;BME280_temperature;BME280_humidity;BME280_pressure;Samples;Min_cycle;Max_cycle;Signal;HPM_P1;HPM_P2
2022/05/28 06:02:10;;;;;;;6.35;1.25;;;;;;;;;;10588712;27;20393;-83
2022/05/28 06:07:11;;;;;;;3.78;1.40;;;;;;;;;;10584504;28;20027;-84
2022/05/28 06:12:12;;;;;;;3.90;1.10;;;;;;;;;;10601658;28;20027;-82
2022/05/28 06:17:13;;;;;;;;;;;;;;;;;;10593607;28;20464;-84
2022/05/28 06:22:14;;;;;;;4.20;1.20;;;;;;;;;;10587159;28;19904;-84
2022/05/28 06:27:15;;;;;;;;;;;;;;;;;;10584658;28;20034;-85
2022/05/28 06:32:16;;;;;;;3.85;1.00;;;;;;;;;;10581193;28;19904;-85
2022/05/28 06:37:17;;;;;;;2.92;0.88;;;;;;;;;;10583004;28;20046;-85
2022/05/28 06:42:18;;;;;;;;;;;;;;;;;;10581830;28;20031;-85
2022/05/28 06:47:19;;;;;;;7.38;1.50;;;;;;;;;;10579959;28;19904;-85
2022/05/28 06:52:19;;;;;;;;;;;;;;;;;;10582762;28;20024;-85
2022/05/28 06:57:20;;;;;;;3.70;1.15;;;;;;;;;;10580396;28;20245;-86
2022/05/28 07:02:22;;;;;;;1.75;0.80;;;;;;;;;;10579050;28;20122;-85
2022/05/28 07:07:23;;;;;;;2.15;0.90;;;;;;;;;;10580769;28;20024;-81
2022/05/28 07:12:24;;;;;;;;;;;;;;;;;;10566075;28;20040;-85
2022/05/28 07:17:45;;;;;;;3.42;0.90;;;;;;;;;;10559764;28;20003;-84
2022/05/28 07:22:46;;;;;;;3.55;1.15;;;;;;;;;;10559646;28;20024;-84
2022/05/28 07:27:47;;;;;;;3.05;0.80;;;;;;;;;;10555901;28;20065;-83
2022/05/28 07:32:48;;;;;;;2.13;0.98;;;;;;;;;;10554981;28;20047;-83
2022/05/28 07:37:49;;;;;;;4.03;1.40;;;;;;;;;;10555974;28;20541;-83
2022/05/28 07:43:10;;;;;;;2.22;0.88;;;;;;;;;;10559522;28;20020;-85
2022/05/28 07:48:16;;;;;;;2.88;1.00;;;;;;;;;;10557742;28;20115;-85
2022/05/28 07:53:29;;;;;;;4.43;1.17;;;;;;;;;;10558866;28;20032;-85
2022/05/28 07:58:34;;;;;;;4.05;1.63;;;;;;;;;;10558379;28;20035;-84
2022/05/28 08:03:36;;;;;;;3.30;1.27;;;;;;;;;;10596664;22;20106;-84
2022/05/28 08:08:42;;;;;;;6.13;1.10;;;;;;;;;;10509048;28;20047;-85
2022/05/28 08:13:46;;;;;;;2.85;1.10;;;;;;;;;;10546731;28;20040;-87
2022/05/28 08:18:55;;;;;;;5.35;1.13;;;;;;;;;;10546027;28;20138;-85
2022/05/28 08:24:00;;;;;;;4.13;1.13;;;;;;;;;;10561906;28;20036;-84
2022/05/28 08:29:07;;;;;;;3.10;1.08;;;;;;;;;;10557305;28;20028;-84
2022/05/28 08:34:35;;;;;;;4.60;1.10;;;;;;;;;;10556878;28;20028;-84
2022/05/28 08:39:56;;;;;;;3.30;1.40;;;;;;;;;;10556814;28;20481;-84
2022/05/28 08:44:59;;;;;;;4.43;1.67;;;;;;;;;;10557509;28;20570;-83
2022/05/28 08:50:08;;;;;;;6.18;1.85;;;;;;;;;;10554769;28;20028;-85
2022/05/28 08:55:11;;;;;;;5.68;1.77;;;;;;;;;;10556865;28;20028;-80
2022/05/28 09:00:18;;;;;;;5.13;1.50;;;;;;;;;;10556964;28;20024;-83
2022/05/28 09:05:22;;;;;;;5.75;1.25;;;;;;;;;;10549041;28;20052;-84
2022/05/28 09:10:59;;;;;;;3.72;1.23;;;;;;;;;;10544291;28;20054;-85
2022/05/28 09:16:28;;;;;;;4.10;1.25;;;;;;;;;;10508077;28;20111;-83
2022/05/28 09:21:30;;;;;;;4.70;1.38;;;;;;;;;;10515432;28;20040;-84
2022/05/28 09:26:39;;;;;;;3.38;1.15;;;;;;;;;;10558959;28;20050;-84
2022/05/28 09:37:36;;;;;;;3.85;1.48;;;;;;;;;;10389928;28;20026;-82
2022/05/28 09:48:27;;;;;;;4.10;1.20;;;;;;;;;;10397030;28;20030;-82
2022/05/28 09:59:10;;;;;;;4.25;1.55;;;;;;;;;;10560047;28;20065;-84
2022/05/28 10:09:35;;;;;;;4.90;2.47;;;;;;;;;;10573926;28;20032;-84
2022/05/28 10:15:20;;;;;;;4.63;2.05;;;;;;;;;;10570635;28;20028;-82
2022/05/28 10:26:29;;;;;;;4.03;1.35;;;;;;;;;;10587154;28;20020;-81
2022/05/28 10:32:06;;;;;;;3.90;1.38;;;;;;;;;;10585650;28;20036;-81
2022/05/28 10:37:20;;;;;;;4.85;1.67;;;;;;;;;;10567521;28;20024;-79
2022/05/28 10:42:24;;;;;;;3.83;1.70;;;;;;;;;;10571058;28;20536;-80
2022/05/28 10:47:33;;;;;;;5.57;1.55;;;;;;;;;;10566160;28;20103;-78
2022/05/28 10:52:59;;;;;;;4.68;2.00;;;;;;;;;;10540807;28;20035;-83
2022/05/28 10:58:09;;;;;;;4.93;1.70;;;;;;;;;;10554479;28;20016;-80
2022/05/28 11:09:01;;;;;;;4.45;1.73;;;;;;;;;;10561495;28;20048;-79
2022/05/28 11:14:42;;;;;;;3.28;1.58;;;;;;;;;;10541738;28;20505;-81
2022/05/28 11:25:25;;;;;;;3.28;1.33;;;;;;;;;;10392082;28;20022;-83
2022/05/28 11:36:50;;;;;;;4.72;2.03;;;;;;;;;;10560609;28;20028;-82
2022/05/28 11:42:11;;;;;;;4.18;1.60;;;;;;;;;;10388234;28;20041;-82
2022/05/28 11:47:40;;;;;;;4.65;1.63;;;;;;;;;;10522006;28;20094;-82
2022/05/28 11:53:09;;;;;;;6.35;2.47;;;;;;;;;;10557296;28;20081;-85
2022/05/28 13:24:38;;;;;;;2.33;1.30;;;;;;;;;;10553774;28;20027;-89
2022/05/28 13:41:56;;;;;;;3.50;1.00;;;;;;;;;;10386385;28;20057;-88
2022/05/28 14:04:10;;;;;;;4.35;1.40;;;;;;;;;;10587797;22;20142;-82
2022/05/28 14:09:11;;;;;;;3.95;1.70;;;;;;;;;;10572323;28;20115;-82
2022/05/28 14:14:26;;;;;;;3.88;1.77;;;;;;;;;;10569774;28;20020;-83
2022/05/28 14:19:31;;;;;;;13.38;9.40;;;;;;;;;;10591648;28;20014;-83
2022/05/28 14:24:39;;;;;;;4.35;1.50;;;;;;;;;;10585424;28;20073;-84
2022/05/28 14:29:42;;;;;;;3.78;1.70;;;;;;;;;;10580593;28;20104;-83
2022/05/28 14:34:45;;;;;;;5.65;1.75;;;;;;;;;;10599621;28;20034;-84
2022/05/28 14:39:49;;;;;;;5.80;1.30;;;;;;;;;;10580954;28;20095;-84
2022/05/28 14:45:00;;;;;;;3.55;1.45;;;;;;;;;;10580886;28;20236;-84
2022/05/28 14:50:06;;;;;;;3.70;1.40;;;;;;;;;;10565171;28;20039;-85
2022/05/28 14:55:11;;;;;;;3.45;1.13;;;;;;;;;;10579775;28;20053;-84
2022/05/28 15:00:20;;;;;;;3.83;1.17;;;;;;;;;;10578828;28;20098;-84
2022/05/28 15:05:21;;;;;;;5.68;1.90;;;;;;;;;;10601948;28;20035;-84
2022/05/28 15:10:30;;;;;;;4.63;1.40;;;;;;;;;;10579329;28;20057;-85
2022/05/28 15:15:31;;;;;;;6.88;3.97;;;;;;;;;;10580593;28;20020;-85
2022/05/28 15:20:33;;;;;;;3.90;1.55;;;;;;;;;;10580840;28;20461;-85
2022/05/28 15:25:34;;;;;;;5.15;1.30;;;;;;;;;;10580287;28;20032;-85
2022/05/28 15:31:00;;;;;;;4.80;1.42;;;;;;;;;;10582331;28;20027;-85
2022/05/28 15:41:20;;;;;;;5.78;1.77;;;;;;;;;;10598147;28;20036;-85
2022/05/28 15:46:21;;;;;;;7.10;1.83;;;;;;;;;;10579152;28;20024;-85
2022/05/28 15:51:23;;;;;;;3.42;1.50;;;;;;;;;;10577253;28;20511;-84
2022/05/28 15:56:29;;;;;;;4.13;1.42;;;;;;;;;;10595829;28;20031;-85
2022/05/28 16:01:33;;;;;;;4.30;1.33;;;;;;;;;;10576962;28;20039;-85
2022/05/28 16:06:39;;;;;;;3.05;1.13;;;;;;;;;;10576225;28;20104;-85
2022/05/28 16:11:40;;;;;;;3.47;1.50;;;;;;;;;;10573529;28;20110;-83
2022/05/28 16:17:03;;;;;;;3.30;1.23;;;;;;;;;;10622969;28;20040;-83
2022/05/28 16:22:23;;;;;;;5.20;2.30;;;;;;;;;;10612505;28;20020;-82
2022/05/28 16:27:28;;;;;;;5.07;1.42;;;;;;;;;;10593315;28;20045;-83
2022/05/28 16:32:40;;;;;;;4.95;1.55;;;;;;;;;;10609884;28;20484;-82
2022/05/28 16:37:41;;;;;;;4.75;1.70;;;;;;;;;;10610676;28;20031;-82
2022/05/28 16:42:46;;;;;;;2.53;1.30;;;;;;;;;;10603718;28;20027;-83
2022/05/28 16:47:48;;;;;;;4.25;1.58;;;;;;;;;;10579511;28;20080;-82
2022/05/28 16:52:58;;;;;;;4.47;1.00;;;;;;;;;;10561645;28;20047;-82
2022/05/28 17:03:32;;;;;;;5.38;1.08;;;;;;;;;;10592023;28;20040;-82
2022/05/28 17:08:50;;;;;;;2.47;0.95;;;;;;;;;;10589559;28;20061;-82
2022/05/28 17:13:56;;;;;;;6.22;1.23;;;;;;;;;;10591560;28;20028;-82
2022/05/28 17:19:06;;;;;;;3.22;1.05;;;;;;;;;;10573207;28;20028;-82
2022/05/28 17:24:37;;;;;;;3.60;1.10;;;;;;;;;;10557158;28;20036;-82
2022/05/28 17:29:38;;;;;;;3.08;1.13;;;;;;;;;;10560866;28;20031;-83
2022/05/28 17:34:42;;;;;;;4.85;1.30;;;;;;;;;;10579377;28;20019;-83
2022/05/28 17:39:42;;;;;;;5.30;1.20;;;;;;;;;;10581510;28;20435;-82
2022/05/28 17:44:44;;;;;;;3.72;1.25;;;;;;;;;;10580520;28;20049;-82
2022/05/28 17:49:50;;;;;;;4.32;1.20;;;;;;;;;;10599809;28;20054;-83
2022/05/28 17:54:51;;;;;;;3.80;1.40;;;;;;;;;;10582019;28;20027;-83
2022/05/28 17:59:52;;;;;;;3.58;1.48;;;;;;;;;;10576801;28;20036;-83
2022/05/28 18:04:54;;;;;;;6.43;1.40;;;;;;;;;;10590610;28;20028;-83
2022/05/28 18:09:55;;;;;;;4.47;1.30;;;;;;;;;;10581993;28;20077;-80
2022/05/28 18:14:56;;;;;;;3.22;1.30;;;;;;;;;;10601378;28;20035;-83
2022/05/28 18:19:59;;;;;;;4.13;1.67;;;;;;;;;;10570164;28;20448;-83
2022/05/28 18:25:00;;;;;;;3.95;1.40;;;;;;;;;;10562960;28;20489;-83
2022/05/28 18:30:07;;;;;;;5.43;2.30;;;;;;;;;;10572397;28;20024;-83
2022/05/28 18:35:14;;;;;;;7.07;1.20;;;;;;;;;;10571096;28;20030;-83
2022/05/28 18:40:20;;;;;;;3.15;1.40;;;;;;;;;;10572429;28;20027;-82
2022/05/28 18:45:27;;;;;;;3.72;1.40;;;;;;;;;;10557401;28;20028;-81
2022/05/28 18:50:29;;;;;;;4.13;1.35;;;;;;;;;;10579736;28;20113;-83
2022/05/28 18:55:31;;;;;;;3.00;1.30;;;;;;;;;;10584929;28;20023;-84
2022/05/28 19:00:51;;;;;;;3.97;1.30;;;;;;;;;;10599877;28;20401;-83
2022/05/28 19:05:52;;;;;;;3.78;1.20;;;;;;;;;;10575331;28;20035;-84
2022/05/28 19:10:53;;;;;;;4.35;1.20;;;;;;;;;;10575137;28;20096;-86
2022/05/28 19:15:55;;;;;;;4.70;1.13;;;;;;;;;;10575927;28;20023;-87
2022/05/28 19:20:56;;;;;;;2.42;0.88;;;;;;;;;;10575040;28;20077;-86
